sensor_id;sensor_type;location;lat;lon;timestamp;P1;durP1;ratioP1;P2;durP2;ratioP2
74415;SDS011;62850;42.428;25.618;2023-03-04T00:02:20;17.35;;;8.60;;
74415;SDS011;62850;42.428;25.618;2023-03-04T00:04:46;18.05;;;7.88;;
74415;SDS011;62850;42.428;25.618;2023-03-04T00:07:11;17.88;;;8.60;;
74415;SDS011;62850;42.428;25.618;2023-03-04T00:09:41;17.45;;;8.15;;
74415;SDS011;62850;42.428;25.618;2023-03-04T00:12:07;19.85;;;9.20;;
74415;SDS011;62850;42.428;25.618;2023-03-04T00:14:33;16.98;;;7.60;;
74415;SDS011;62850;42.428;25.618;2023-03-04T00:16:58;14.52;;;7.80;;
74415;SDS011;62850;42.428;25.618;2023-03-04T00:19:23;15.38;;;7.15;;
74415;SDS011;62850;42.428;25.618;2023-03-04T00:21:49;15.85;;;6.93;;
74415;SDS011;62850;42.428;25.618;2023-03-04T00:24:14;18.23;;;8.50;;
74415;SDS011;62850;42.428;25.618;2023-03-04T00:26:40;13.18;;;6.82;;
74415;SDS011;62850;42.428;25.618;2023-03-04T00:29:05;15.02;;;7.78;;
74415;SDS011;62850;42.428;25.618;2023-03-04T00:31:31;12.90;;;6.88;;
74415;SDS011;62850;42.428;25.618;2023-03-04T00:33:56;17.10;;;7.50;;
74415;SDS011;62850;42.428;25.618;2023-03-04T00:36:21;14.90;;;6.70;;
74415;SDS011;62850;42.428;25.618;2023-03-04T00:38:47;13.00;;;6.45;;
74415;SDS011;62850;42.428;25.618;2023-03-04T00:41:12;13.40;;;6.28;;
74415;SDS011;62850;42.428;25.618;2023-03-04T00:43:38;16.27;;;6.75;;
74415;SDS011;62850;42.428;25.618;2023-03-04T00:46:03;15.90;;;6.97;;
74415;SDS011;62850;42.428;25.618;2023-03-04T00:48:29;13.45;;;6.57;;
74415;SDS011;62850;42.428;25.618;2023-03-04T00:50:54;13.07;;;6.93;;
74415;SDS011;62850;42.428;25.618;2023-03-04T00:53:20;14.85;;;6.38;;
74415;SDS011;62850;42.428;25.618;2023-03-04T00:55:47;13.52;;;6.35;;
74415;SDS011;62850;42.428;25.618;2023-03-04T00:58:13;13.55;;;6.57;;
74415;SDS011;62850;42.428;25.618;2023-03-04T01:00:38;15.32;;;6.57;;
74415;SDS011;62850;42.428;25.618;2023-03-04T01:03:04;14.65;;;6.82;;
74415;SDS011;62850;42.428;25.618;2023-03-04T01:05:29;14.63;;;6.18;;
74415;SDS011;62850;42.428;25.618;2023-03-04T01:07:56;13.48;;;6.32;;
74415;SDS011;62850;42.428;25.618;2023-03-04T01:10:21;12.15;;;6.40;;
74415;SDS011;62850;42.428;25.618;2023-03-04T01:12:47;14.38;;;6.80;;
74415;SDS011;62850;42.428;25.618;2023-03-04T01:15:12;15.73;;;7.78;;
74415;SDS011;62850;42.428;25.618;2023-03-04T01:17:39;13.10;;;6.18;;
74415;SDS011;62850;42.428;25.618;2023-03-04T01:20:05;13.63;;;6.30;;
74415;SDS011;62850;42.428;25.618;2023-03-04T01:22:32;12.32;;;6.65;;
74415;SDS011;62850;42.428;25.618;2023-03-04T01:24:57;13.70;;;6.72;;
74415;SDS011;62850;42.428;25.618;2023-03-04T01:27:23;13.05;;;6.25;;
74415;SDS011;62850;42.428;25.618;2023-03-04T01:29:48;16.25;;;6.78;;
74415;SDS011;62850;42.428;25.618;2023-03-04T01:32:14;15.07;;;7.18;;
74415;SDS011;62850;42.428;25.618;2023-03-04T01:34:39;14.18;;;7.10;;
74415;SDS011;62850;42.428;25.618;2023-03-04T01:37:05;15.05;;;7.45;;
74415;SDS011;62850;42.428;25.618;2023-03-04T01:39:30;17.33;;;8.07;;
74415;SDS011;62850;42.428;25.618;2023-03-04T01:41:56;15.40;;;7.50;;
74415;SDS011;62850;42.428;25.618;2023-03-04T01:44:22;17.30;;;8.13;;
74415;SDS011;62850;42.428;25.618;2023-03-04T01:46:48;17.27;;;8.13;;
74415;SDS011;62850;42.428;25.618;2023-03-04T01:49:16;16.88;;;7.63;;
74415;SDS011;62850;42.428;25.618;2023-03-04T01:51:43;18.08;;;8.07;;
74415;SDS011;62850;42.428;25.618;2023-03-04T01:54:11;17.55;;;8.02;;
74415;SDS011;62850;42.428;25.618;2023-03-04T01:56:37;18.33;;;8.70;;
74415;SDS011;62850;42.428;25.618;2023-03-04T02:01:48;18.05;;;8.30;;
74415;SDS011;62850;42.428;25.618;2023-03-04T02:04:17;20.35;;;8.57;;
74415;SDS011;62850;42.428;25.618;2023-03-04T02:06:46;18.08;;;8.40;;
74415;SDS011;62850;42.428;25.618;2023-03-04T02:09:12;20.85;;;9.15;;
74415;SDS011;62850;42.428;25.618;2023-03-04T02:11:38;19.45;;;8.70;;
74415;SDS011;62850;42.428;25.618;2023-03-04T02:14:05;17.40;;;8.32;;
74415;SDS011;62850;42.428;25.618;2023-03-04T02:16:30;19.23;;;8.65;;
74415;SDS011;62850;42.428;25.618;2023-03-04T02:18:56;18.48;;;8.55;;
74415;SDS011;62850;42.428;25.618;2023-03-04T02:26:28;23.33;;;9.93;;
74415;SDS011;62850;42.428;25.618;2023-03-04T02:28:55;21.35;;;9.63;;
74415;SDS011;62850;42.428;25.618;2023-03-04T02:31:24;20.88;;;10.38;;
74415;SDS011;62850;42.428;25.618;2023-03-04T02:33:56;20.17;;;8.55;;
74415;SDS011;62850;42.428;25.618;2023-03-04T02:36:24;22.33;;;10.02;;
74415;SDS011;62850;42.428;25.618;2023-03-04T02:38:51;18.83;;;9.15;;
74415;SDS011;62850;42.428;25.618;2023-03-04T02:41:18;19.83;;;9.32;;
74415;SDS011;62850;42.428;25.618;2023-03-04T02:43:46;19.60;;;10.50;;
74415;SDS011;62850;42.428;25.618;2023-03-04T02:46:13;19.55;;;9.55;;
74415;SDS011;62850;42.428;25.618;2023-03-04T02:48:38;19.58;;;9.35;;
74415;SDS011;62850;42.428;25.618;2023-03-04T02:51:04;20.45;;;9.18;;
74415;SDS011;62850;42.428;25.618;2023-03-04T02:53:29;18.55;;;8.63;;
74415;SDS011;62850;42.428;25.618;2023-03-04T02:55:55;17.85;;;9.52;;
74415;SDS011;62850;42.428;25.618;2023-03-04T02:58:20;19.65;;;8.73;;
74415;SDS011;62850;42.428;25.618;2023-03-04T03:00:46;18.83;;;8.60;;
74415;SDS011;62850;42.428;25.618;2023-03-04T03:03:11;19.70;;;9.20;;
74415;SDS011;62850;42.428;25.618;2023-03-04T03:05:37;17.85;;;8.43;;
74415;SDS011;62850;42.428;25.618;2023-03-04T03:08:03;22.05;;;9.07;;
74415;SDS011;62850;42.428;25.618;2023-03-04T03:10:29;18.17;;;8.68;;
74415;SDS011;62850;42.428;25.618;2023-03-04T03:12:54;19.23;;;8.80;;
74415;SDS011;62850;42.428;25.618;2023-03-04T03:15:20;17.08;;;8.30;;
74415;SDS011;62850;42.428;25.618;2023-03-04T03:17:46;21.70;;;9.65;;
74415;SDS011;62850;42.428;25.618;2023-03-04T03:20:11;23.58;;;9.23;;
74415;SDS011;62850;42.428;25.618;2023-03-04T03:22:38;21.30;;;9.35;;
74415;SDS011;62850;42.428;25.618;2023-03-04T03:25:04;20.15;;;8.98;;
74415;SDS011;62850;42.428;25.618;2023-03-04T03:27:30;20.23;;;9.30;;
74415;SDS011;62850;42.428;25.618;2023-03-04T03:29:56;21.88;;;9.73;;
74415;SDS011;62850;42.428;25.618;2023-03-04T03:32:22;22.27;;;9.18;;
74415;SDS011;62850;42.428;25.618;2023-03-04T03:34:47;19.88;;;9.48;;
74415;SDS011;62850;42.428;25.618;2023-03-04T03:37:13;22.00;;;10.38;;
74415;SDS011;62850;42.428;25.618;2023-03-04T03:39:39;19.73;;;9.15;;
74415;SDS011;62850;42.428;25.618;2023-03-04T03:42:04;21.88;;;9.85;;
74415;SDS011;62850;42.428;25.618;2023-03-04T03:44:29;24.23;;;10.77;;
74415;SDS011;62850;42.428;25.618;2023-03-04T03:46:55;22.92;;;10.75;;
74415;SDS011;62850;42.428;25.618;2023-03-04T03:49:21;23.27;;;10.18;;
74415;SDS011;62850;42.428;25.618;2023-03-04T03:51:46;24.88;;;10.25;;
74415;SDS011;62850;42.428;25.618;2023-03-04T03:54:12;21.75;;;11.18;;
74415;SDS011;62850;42.428;25.618;2023-03-04T03:56:37;24.25;;;10.52;;
74415;SDS011;62850;42.428;25.618;2023-03-04T03:59:02;25.00;;;11.25;;
74415;SDS011;62850;42.428;25.618;2023-03-04T04:01:31;23.75;;;10.40;;
74415;SDS011;62850;42.428;25.618;2023-03-04T04:03:57;22.65;;;11.18;;
74415;SDS011;62850;42.428;25.618;2023-03-04T04:06:24;20.25;;;10.05;;
74415;SDS011;62850;42.428;25.618;2023-03-04T04:08:50;22.90;;;10.80;;
74415;SDS011;62850;42.428;25.618;2023-03-04T04:11:15;25.00;;;9.68;;
74415;SDS011;62850;42.428;25.618;2023-03-04T04:13:41;26.70;;;11.48;;
74415;SDS011;62850;42.428;25.618;2023-03-04T04:16:07;20.58;;;9.73;;
74415;SDS011;62850;42.428;25.618;2023-03-04T04:18:34;24.85;;;10.98;;
74415;SDS011;62850;42.428;25.618;2023-03-04T04:20:59;23.50;;;10.45;;
74415;SDS011;62850;42.428;25.618;2023-03-04T04:23:25;21.98;;;10.95;;
74415;SDS011;62850;42.428;25.618;2023-03-04T04:25:53;25.38;;;11.68;;
74415;SDS011;62850;42.428;25.618;2023-03-04T04:28:19;25.45;;;11.85;;
74415;SDS011;62850;42.428;25.618;2023-03-04T04:30:44;27.60;;;11.93;;
74415;SDS011;62850;42.428;25.618;2023-03-04T04:33:10;24.20;;;10.88;;
74415;SDS011;62850;42.428;25.618;2023-03-04T04:35:35;27.50;;;10.30;;
74415;SDS011;62850;42.428;25.618;2023-03-04T04:38:02;23.75;;;10.68;;
74415;SDS011;62850;42.428;25.618;2023-03-04T04:40:28;21.67;;;10.13;;
74415;SDS011;62850;42.428;25.618;2023-03-04T04:42:54;23.25;;;9.98;;
74415;SDS011;62850;42.428;25.618;2023-03-04T04:45:19;21.83;;;9.65;;
74415;SDS011;62850;42.428;25.618;2023-03-04T04:47:45;19.60;;;9.70;;
74415;SDS011;62850;42.428;25.618;2023-03-04T04:50:10;23.52;;;10.10;;
74415;SDS011;62850;42.428;25.618;2023-03-04T04:52:36;21.45;;;10.63;;
74415;SDS011;62850;42.428;25.618;2023-03-04T04:55:01;21.35;;;10.15;;
74415;SDS011;62850;42.428;25.618;2023-03-04T04:57:27;23.10;;;10.30;;
74415;SDS011;62850;42.428;25.618;2023-03-04T04:59:53;21.33;;;10.10;;
74415;SDS011;62850;42.428;25.618;2023-03-04T05:02:19;19.13;;;9.35;;
74415;SDS011;62850;42.428;25.618;2023-03-04T05:04:44;23.50;;;9.68;;
74415;SDS011;62850;42.428;25.618;2023-03-04T05:07:10;22.00;;;10.30;;
74415;SDS011;62850;42.428;25.618;2023-03-04T05:09:35;23.35;;;9.85;;
74415;SDS011;62850;42.428;25.618;2023-03-04T05:12:00;26.60;;;10.95;;
74415;SDS011;62850;42.428;25.618;2023-03-04T05:14:26;21.20;;;10.27;;
74415;SDS011;62850;42.428;25.618;2023-03-04T05:16:51;23.55;;;10.23;;
74415;SDS011;62850;42.428;25.618;2023-03-04T05:19:17;23.77;;;10.60;;
74415;SDS011;62850;42.428;25.618;2023-03-04T05:21:43;22.92;;;10.90;;
74415;SDS011;62850;42.428;25.618;2023-03-04T05:24:09;23.73;;;10.13;;
74415;SDS011;62850;42.428;25.618;2023-03-04T05:26:35;22.50;;;10.60;;
74415;SDS011;62850;42.428;25.618;2023-03-04T05:29:00;29.02;;;11.23;;
74415;SDS011;62850;42.428;25.618;2023-03-04T05:31:26;23.20;;;10.35;;
74415;SDS011;62850;42.428;25.618;2023-03-04T05:33:51;22.25;;;10.18;;
74415;SDS011;62850;42.428;25.618;2023-03-04T05:36:17;23.15;;;10.82;;
74415;SDS011;62850;42.428;25.618;2023-03-04T05:38:42;26.02;;;10.48;;
74415;SDS011;62850;42.428;25.618;2023-03-04T05:41:07;26.40;;;11.75;;
74415;SDS011;62850;42.428;25.618;2023-03-04T05:43:33;21.98;;;10.60;;
74415;SDS011;62850;42.428;25.618;2023-03-04T05:46:00;24.85;;;11.07;;
74415;SDS011;62850;42.428;25.618;2023-03-04T05:48:27;20.60;;;10.13;;
74415;SDS011;62850;42.428;25.618;2023-03-04T05:50:56;27.63;;;11.75;;
74415;SDS011;62850;42.428;25.618;2023-03-04T05:53:23;26.08;;;12.63;;
74415;SDS011;62850;42.428;25.618;2023-03-04T05:55:49;29.60;;;12.82;;
74415;SDS011;62850;42.428;25.618;2023-03-04T05:58:15;26.73;;;13.48;;
74415;SDS011;62850;42.428;25.618;2023-03-04T06:00:42;30.10;;;13.77;;
74415;SDS011;62850;42.428;25.618;2023-03-04T06:03:12;29.33;;;13.88;;
74415;SDS011;62850;42.428;25.618;2023-03-04T06:05:39;28.88;;;14.50;;
74415;SDS011;62850;42.428;25.618;2023-03-04T06:08:04;27.67;;;14.43;;
74415;SDS011;62850;42.428;25.618;2023-03-04T06:10:30;31.70;;;14.75;;
74415;SDS011;62850;42.428;25.618;2023-03-04T06:12:55;33.65;;;14.93;;
74415;SDS011;62850;42.428;25.618;2023-03-04T06:15:20;31.77;;;14.65;;
74415;SDS011;62850;42.428;25.618;2023-03-04T06:17:46;33.17;;;15.20;;
74415;SDS011;62850;42.428;25.618;2023-03-04T06:20:11;32.08;;;14.38;;
74415;SDS011;62850;42.428;25.618;2023-03-04T06:22:37;31.42;;;15.30;;
74415;SDS011;62850;42.428;25.618;2023-03-04T06:25:03;30.85;;;14.38;;
74415;SDS011;62850;42.428;25.618;2023-03-04T06:27:31;31.98;;;14.90;;
74415;SDS011;62850;42.428;25.618;2023-03-04T06:29:57;30.75;;;13.82;;
74415;SDS011;62850;42.428;25.618;2023-03-04T06:32:25;33.08;;;14.27;;
74415;SDS011;62850;42.428;25.618;2023-03-04T06:34:52;26.05;;;13.88;;
74415;SDS011;62850;42.428;25.618;2023-03-04T06:37:17;27.20;;;13.70;;
74415;SDS011;62850;42.428;25.618;2023-03-04T06:39:43;30.63;;;13.90;;
74415;SDS011;62850;42.428;25.618;2023-03-04T06:42:09;32.38;;;15.52;;
74415;SDS011;62850;42.428;25.618;2023-03-04T06:44:35;33.58;;;14.13;;
74415;SDS011;62850;42.428;25.618;2023-03-04T06:47:00;31.85;;;14.88;;
74415;SDS011;62850;42.428;25.618;2023-03-04T06:49:26;35.10;;;16.00;;
74415;SDS011;62850;42.428;25.618;2023-03-04T06:51:51;32.97;;;15.85;;
74415;SDS011;62850;42.428;25.618;2023-03-04T06:54:17;36.33;;;16.33;;
74415;SDS011;62850;42.428;25.618;2023-03-04T06:56:42;39.58;;;17.75;;
74415;SDS011;62850;42.428;25.618;2023-03-04T06:59:08;40.53;;;17.73;;
74415;SDS011;62850;42.428;25.618;2023-03-04T07:01:33;36.88;;;17.65;;
74415;SDS011;62850;42.428;25.618;2023-03-04T07:03:59;40.05;;;18.10;;
74415;SDS011;62850;42.428;25.618;2023-03-04T07:06:25;38.65;;;19.23;;
74415;SDS011;62850;42.428;25.618;2023-03-04T07:08:52;38.50;;;17.27;;
74415;SDS011;62850;42.428;25.618;2023-03-04T07:11:18;44.95;;;19.60;;
74415;SDS011;62850;42.428;25.618;2023-03-04T07:13:46;42.00;;;18.65;;
74415;SDS011;62850;42.428;25.618;2023-03-04T07:16:13;41.13;;;19.75;;
74415;SDS011;62850;42.428;25.618;2023-03-04T07:18:42;44.80;;;18.20;;
74415;SDS011;62850;42.428;25.618;2023-03-04T07:21:08;39.78;;;18.38;;
74415;SDS011;62850;42.428;25.618;2023-03-04T07:23:34;42.35;;;18.75;;
74415;SDS011;62850;42.428;25.618;2023-03-04T07:26:00;46.50;;;18.95;;
74415;SDS011;62850;42.428;25.618;2023-03-04T07:28:26;42.38;;;18.10;;
74415;SDS011;62850;42.428;25.618;2023-03-04T07:30:51;44.75;;;20.15;;
74415;SDS011;62850;42.428;25.618;2023-03-04T07:33:17;41.42;;;20.23;;
74415;SDS011;62850;42.428;25.618;2023-03-04T07:35:42;43.25;;;22.20;;
74415;SDS011;62850;42.428;25.618;2023-03-04T07:38:08;48.92;;;21.63;;
74415;SDS011;62850;42.428;25.618;2023-03-04T07:40:33;48.53;;;22.45;;
74415;SDS011;62850;42.428;25.618;2023-03-04T07:42:59;41.25;;;20.63;;
74415;SDS011;62850;42.428;25.618;2023-03-04T07:45:24;44.70;;;21.88;;
74415;SDS011;62850;42.428;25.618;2023-03-04T07:47:52;48.53;;;21.50;;
74415;SDS011;62850;42.428;25.618;2023-03-04T07:50:18;48.40;;;22.17;;
74415;SDS011;62850;42.428;25.618;2023-03-04T07:52:45;54.63;;;21.15;;
74415;SDS011;62850;42.428;25.618;2023-03-04T07:55:12;46.58;;;20.70;;
74415;SDS011;62850;42.428;25.618;2023-03-04T07:57:44;46.75;;;21.48;;
74415;SDS011;62850;42.428;25.618;2023-03-04T08:00:11;46.35;;;22.90;;
74415;SDS011;62850;42.428;25.618;2023-03-04T08:02:39;47.45;;;21.95;;
74415;SDS011;62850;42.428;25.618;2023-03-04T08:05:04;38.60;;;20.40;;
74415;SDS011;62850;42.428;25.618;2023-03-04T08:07:30;48.38;;;22.52;;
74415;SDS011;62850;42.428;25.618;2023-03-04T08:09:56;46.38;;;22.75;;
74415;SDS011;62850;42.428;25.618;2023-03-04T08:12:21;45.20;;;21.13;;
74415;SDS011;62850;42.428;25.618;2023-03-04T08:14:49;40.88;;;21.13;;
74415;SDS011;62850;42.428;25.618;2023-03-04T08:17:14;44.17;;;21.45;;
74415;SDS011;62850;42.428;25.618;2023-03-04T08:19:40;45.75;;;21.30;;
74415;SDS011;62850;42.428;25.618;2023-03-04T08:22:05;44.60;;;20.73;;
74415;SDS011;62850;42.428;25.618;2023-03-04T08:24:31;44.17;;;20.88;;
74415;SDS011;62850;42.428;25.618;2023-03-04T08:26:57;34.25;;;19.50;;
74415;SDS011;62850;42.428;25.618;2023-03-04T08:29:23;39.95;;;19.23;;
74415;SDS011;62850;42.428;25.618;2023-03-04T08:31:50;35.22;;;17.73;;
74415;SDS011;62850;42.428;25.618;2023-03-04T08:34:17;40.53;;;17.92;;
74415;SDS011;62850;42.428;25.618;2023-03-04T08:36:48;37.13;;;18.13;;
74415;SDS011;62850;42.428;25.618;2023-03-04T08:39:14;37.53;;;18.25;;
74415;SDS011;62850;42.428;25.618;2023-03-04T08:41:41;45.95;;;20.38;;
74415;SDS011;62850;42.428;25.618;2023-03-04T08:44:07;43.30;;;19.90;;
74415;SDS011;62850;42.428;25.618;2023-03-04T08:46:34;34.97;;;18.63;;
74415;SDS011;62850;42.428;25.618;2023-03-04T08:49:00;36.20;;;19.08;;
74415;SDS011;62850;42.428;25.618;2023-03-04T08:51:26;33.25;;;18.92;;
74415;SDS011;62850;42.428;25.618;2023-03-04T08:53:52;36.22;;;18.10;;
74415;SDS011;62850;42.428;25.618;2023-03-04T08:56:17;36.55;;;17.63;;
74415;SDS011;62850;42.428;25.618;2023-03-04T08:58:43;39.00;;;18.25;;
74415;SDS011;62850;42.428;25.618;2023-03-04T09:01:09;39.50;;;19.15;;
74415;SDS011;62850;42.428;25.618;2023-03-04T09:03:36;41.25;;;18.20;;
74415;SDS011;62850;42.428;25.618;2023-03-04T09:06:02;38.80;;;17.75;;
74415;SDS011;62850;42.428;25.618;2023-03-04T09:08:29;30.10;;;16.92;;
74415;SDS011;62850;42.428;25.618;2023-03-04T09:10:54;35.05;;;17.52;;
74415;SDS011;62850;42.428;25.618;2023-03-04T09:13:21;35.13;;;16.42;;
74415;SDS011;62850;42.428;25.618;2023-03-04T09:15:47;33.60;;;16.65;;
74415;SDS011;62850;42.428;25.618;2023-03-04T09:18:19;32.53;;;16.45;;
74415;SDS011;62850;42.428;25.618;2023-03-04T09:20:46;29.40;;;15.48;;
74415;SDS011;62850;42.428;25.618;2023-03-04T09:23:12;31.10;;;17.15;;
74415;SDS011;62850;42.428;25.618;2023-03-04T09:25:39;32.25;;;17.00;;
74415;SDS011;62850;42.428;25.618;2023-03-04T09:28:09;36.28;;;17.73;;
74415;SDS011;62850;42.428;25.618;2023-03-04T09:30:35;36.95;;;17.58;;
74415;SDS011;62850;42.428;25.618;2023-03-04T09:33:00;31.95;;;17.35;;
74415;SDS011;62850;42.428;25.618;2023-03-04T09:35:26;30.65;;;16.25;;
74415;SDS011;62850;42.428;25.618;2023-03-04T09:37:53;33.13;;;16.88;;
74415;SDS011;62850;42.428;25.618;2023-03-04T09:40:21;35.22;;;16.23;;
74415;SDS011;62850;42.428;25.618;2023-03-04T09:42:55;26.13;;;14.25;;
74415;SDS011;62850;42.428;25.618;2023-03-04T09:45:26;26.90;;;14.63;;
74415;SDS011;62850;42.428;25.618;2023-03-04T09:47:58;33.72;;;16.27;;
74415;SDS011;62850;42.428;25.618;2023-03-04T09:50:23;30.27;;;15.40;;
74415;SDS011;62850;42.428;25.618;2023-03-04T09:55:50;28.88;;;15.73;;
74415;SDS011;62850;42.428;25.618;2023-03-04T10:01:16;30.48;;;15.38;;
74415;SDS011;62850;42.428;25.618;2023-03-04T10:03:50;26.10;;;13.82;;
74415;SDS011;62850;42.428;25.618;2023-03-04T10:06:40;26.23;;;13.48;;
74415;SDS011;62850;42.428;25.618;2023-03-04T10:09:15;27.30;;;14.02;;
74415;SDS011;62850;42.428;25.618;2023-03-04T10:11:44;28.90;;;13.77;;
74415;SDS011;62850;42.428;25.618;2023-03-04T10:16:51;29.17;;;13.90;;
74415;SDS011;62850;42.428;25.618;2023-03-04T10:25:09;29.80;;;15.10;;
74415;SDS011;62850;42.428;25.618;2023-03-04T10:27:42;27.02;;;14.80;;
74415;SDS011;62850;42.428;25.618;2023-03-04T10:32:50;23.80;;;12.63;;
74415;SDS011;62850;42.428;25.618;2023-03-04T10:35:16;35.78;;;16.27;;
74415;SDS011;62850;42.428;25.618;2023-03-04T10:37:50;25.00;;;14.30;;
74415;SDS011;62850;42.428;25.618;2023-03-04T10:40:22;28.02;;;14.15;;
74415;SDS011;62850;42.428;25.618;2023-03-04T10:42:50;25.90;;;13.95;;
74415;SDS011;62850;42.428;25.618;2023-03-04T10:45:23;26.90;;;12.85;;
74415;SDS011;62850;42.428;25.618;2023-03-04T10:47:54;30.50;;;13.05;;
74415;SDS011;62850;42.428;25.618;2023-03-04T10:50:24;23.33;;;13.02;;
74415;SDS011;62850;42.428;25.618;2023-03-04T10:52:51;23.08;;;12.68;;
74415;SDS011;62850;42.428;25.618;2023-03-04T10:58:05;33.47;;;14.05;;
74415;SDS011;62850;42.428;25.618;2023-03-04T11:00:37;24.23;;;12.70;;
74415;SDS011;62850;42.428;25.618;2023-03-04T11:06:20;24.25;;;13.85;;
74415;SDS011;62850;42.428;25.618;2023-03-04T11:08:53;23.38;;;13.52;;
74415;SDS011;62850;42.428;25.618;2023-03-04T11:11:30;27.08;;;14.30;;
74415;SDS011;62850;42.428;25.618;2023-03-04T11:14:07;27.98;;;15.05;;
74415;SDS011;62850;42.428;25.618;2023-03-04T11:16:44;25.45;;;13.93;;
74415;SDS011;62850;42.428;25.618;2023-03-04T11:19:17;23.98;;;13.20;;
74415;SDS011;62850;42.428;25.618;2023-03-04T11:21:46;24.85;;;12.75;;
74415;SDS011;62850;42.428;25.618;2023-03-04T11:24:14;22.45;;;12.80;;
74415;SDS011;62850;42.428;25.618;2023-03-04T11:26:54;25.52;;;12.60;;
74415;SDS011;62850;42.428;25.618;2023-03-04T11:29:36;23.88;;;13.18;;
74415;SDS011;62850;42.428;25.618;2023-03-04T11:32:21;24.65;;;12.48;;
74415;SDS011;62850;42.428;25.618;2023-03-04T11:37:43;26.17;;;13.25;;
74415;SDS011;62850;42.428;25.618;2023-03-04T11:40:17;22.23;;;10.98;;
74415;SDS011;62850;42.428;25.618;2023-03-04T11:42:54;22.80;;;12.82;;
74415;SDS011;62850;42.428;25.618;2023-03-04T11:45:27;24.23;;;11.63;;
74415;SDS011;62850;42.428;25.618;2023-03-04T11:50:50;47.65;;;21.48;;
74415;SDS011;62850;42.428;25.618;2023-03-04T11:53:39;42.58;;;20.50;;
74415;SDS011;62850;42.428;25.618;2023-03-04T11:56:20;24.30;;;12.85;;
74415;SDS011;62850;42.428;25.618;2023-03-04T12:20:46;17.35;;;8.85;;
74415;SDS011;62850;42.428;25.618;2023-03-04T12:31:42;17.52;;;9.82;;
74415;SDS011;62850;42.428;25.618;2023-03-04T12:34:25;17.40;;;9.10;;
74415;SDS011;62850;42.428;25.618;2023-03-04T12:39:36;17.67;;;9.15;;
74415;SDS011;62850;42.428;25.618;2023-03-04T12:45:12;20.80;;;10.95;;
74415;SDS011;62850;42.428;25.618;2023-03-04T12:47:51;19.10;;;9.70;;
74415;SDS011;62850;42.428;25.618;2023-03-04T12:56:26;20.05;;;9.85;;
74415;SDS011;62850;42.428;25.618;2023-03-04T12:59:03;18.83;;;11.40;;
74415;SDS011;62850;42.428;25.618;2023-03-04T13:01:35;23.88;;;13.57;;
74415;SDS011;62850;42.428;25.618;2023-03-04T13:06:42;30.25;;;16.98;;
74415;SDS011;62850;42.428;25.618;2023-03-04T13:09:16;30.42;;;15.15;;
74415;SDS011;62850;42.428;25.618;2023-03-04T13:43:53;19.38;;;10.32;;
74415;SDS011;62850;42.428;25.618;2023-03-04T13:51:32;19.60;;;10.38;;
74415;SDS011;62850;42.428;25.618;2023-03-04T14:02:13;16.58;;;9.43;;
74415;SDS011;62850;42.428;25.618;2023-03-04T14:04:59;20.33;;;10.73;;
74415;SDS011;62850;42.428;25.618;2023-03-04T14:12:36;21.83;;;12.48;;
74415;SDS011;62850;42.428;25.618;2023-03-04T14:15:11;18.17;;;9.85;;
74415;SDS011;62850;42.428;25.618;2023-03-04T14:17:43;18.90;;;10.00;;
74415;SDS011;62850;42.428;25.618;2023-03-04T14:23:03;16.33;;;8.85;;
74415;SDS011;62850;42.428;25.618;2023-03-04T14:25:46;17.60;;;9.77;;
74415;SDS011;62850;42.428;25.618;2023-03-04T14:28:12;19.45;;;8.68;;
74415;SDS011;62850;42.428;25.618;2023-03-04T14:30:49;15.80;;;8.95;;
74415;SDS011;62850;42.428;25.618;2023-03-04T14:33:17;17.25;;;9.05;;
74415;SDS011;62850;42.428;25.618;2023-03-04T14:35:49;16.58;;;9.45;;
74415;SDS011;62850;42.428;25.618;2023-03-04T14:38:22;18.20;;;9.40;;
74415;SDS011;62850;42.428;25.618;2023-03-04T14:43:21;16.95;;;9.80;;
74415;SDS011;62850;42.428;25.618;2023-03-04T14:45:48;18.70;;;9.48;;
74415;SDS011;62850;42.428;25.618;2023-03-04T14:48:32;17.60;;;10.43;;
74415;SDS011;62850;42.428;25.618;2023-03-04T14:50:58;19.80;;;10.80;;
74415;SDS011;62850;42.428;25.618;2023-03-04T14:53:26;23.98;;;10.63;;
74415;SDS011;62850;42.428;25.618;2023-03-04T14:55:54;18.88;;;10.68;;
74415;SDS011;62850;42.428;25.618;2023-03-04T15:03:54;22.25;;;12.10;;
74415;SDS011;62850;42.428;25.618;2023-03-04T15:06:20;26.40;;;12.45;;
74415;SDS011;62850;42.428;25.618;2023-03-04T15:08:58;21.15;;;11.52;;
74415;SDS011;62850;42.428;25.618;2023-03-04T15:17:04;36.88;;;16.38;;
74415;SDS011;62850;42.428;25.618;2023-03-04T15:19:45;56.33;;;20.35;;
74415;SDS011;62850;42.428;25.618;2023-03-04T15:22:21;46.88;;;17.88;;
74415;SDS011;62850;42.428;25.618;2023-03-04T15:24:46;90.57;;;30.98;;
74415;SDS011;62850;42.428;25.618;2023-03-04T15:27:13;150.18;;;45.55;;
74415;SDS011;62850;42.428;25.618;2023-03-04T15:29:41;81.35;;;27.48;;
74415;SDS011;62850;42.428;25.618;2023-03-04T15:32:08;75.90;;;25.88;;
74415;SDS011;62850;42.428;25.618;2023-03-04T15:34:35;37.72;;;16.65;;
74415;SDS011;62850;42.428;25.618;2023-03-04T15:37:00;31.90;;;14.20;;
74415;SDS011;62850;42.428;25.618;2023-03-04T15:39:26;29.35;;;13.52;;
74415;SDS011;62850;42.428;25.618;2023-03-04T15:41:51;30.45;;;13.98;;
74415;SDS011;62850;42.428;25.618;2023-03-04T15:44:17;46.40;;;16.85;;
74415;SDS011;62850;42.428;25.618;2023-03-04T15:46:43;30.90;;;14.23;;
74415;SDS011;62850;42.428;25.618;2023-03-04T15:49:08;33.85;;;14.70;;
74415;SDS011;62850;42.428;25.618;2023-03-04T15:51:33;39.55;;;17.63;;
74415;SDS011;62850;42.428;25.618;2023-03-04T15:53:59;42.15;;;16.85;;
74415;SDS011;62850;42.428;25.618;2023-03-04T15:56:27;37.53;;;16.52;;
74415;SDS011;62850;42.428;25.618;2023-03-04T15:59:02;35.00;;;16.15;;
74415;SDS011;62850;42.428;25.618;2023-03-04T16:01:30;29.80;;;14.02;;
74415;SDS011;62850;42.428;25.618;2023-03-04T16:03:55;38.10;;;15.23;;
74415;SDS011;62850;42.428;25.618;2023-03-04T16:06:21;35.83;;;15.02;;
74415;SDS011;62850;42.428;25.618;2023-03-04T16:08:50;29.55;;;14.45;;
74415;SDS011;62850;42.428;25.618;2023-03-04T16:11:20;25.50;;;13.55;;
74415;SDS011;62850;42.428;25.618;2023-03-04T16:13:47;31.83;;;13.43;;
74415;SDS011;62850;42.428;25.618;2023-03-04T16:16:13;30.17;;;14.25;;
74415;SDS011;62850;42.428;25.618;2023-03-04T16:18:39;28.35;;;14.32;;
74415;SDS011;62850;42.428;25.618;2023-03-04T16:21:06;30.20;;;14.63;;
74415;SDS011;62850;42.428;25.618;2023-03-04T16:23:40;33.63;;;15.52;;
74415;SDS011;62850;42.428;25.618;2023-03-04T16:26:11;31.30;;;14.77;;
74415;SDS011;62850;42.428;25.618;2023-03-04T16:28:37;36.58;;;17.17;;
74415;SDS011;62850;42.428;25.618;2023-03-04T16:31:03;40.58;;;17.95;;
74415;SDS011;62850;42.428;25.618;2023-03-04T16:33:29;35.47;;;15.40;;
74415;SDS011;62850;42.428;25.618;2023-03-04T16:35:54;40.83;;;17.15;;
74415;SDS011;62850;42.428;25.618;2023-03-04T16:38:24;41.80;;;17.75;;
74415;SDS011;62850;42.428;25.618;2023-03-04T16:40:53;35.67;;;16.02;;
74415;SDS011;62850;42.428;25.618;2023-03-04T16:43:19;41.03;;;18.50;;
74415;SDS011;62850;42.428;25.618;2023-03-04T16:45:46;32.17;;;16.88;;